createdAt,value
2023-01-18T00:00:20.096Z,96272.33
2023-01-18T00:03:26.249Z,96273.50
2023-01-18T00:06:32.459Z,96265.55
2023-01-18T00:09:38.644Z,96265.28
2023-01-18T00:12:45.103Z,96272.57
2023-01-18T00:15:51.411Z,96274.68
2023-01-18T00:18:56.966Z,96269.76
2023-01-18T00:22:03.419Z,96270.34
2023-01-18T00:25:12.596Z,96273.14
2023-01-18T00:28:21.858Z,96277.08
2023-01-18T00:31:28.443Z,96271.56
2023-01-18T00:34:34.888Z,96258.65
2023-01-18T00:37:39.428Z,96257.53
2023-01-18T00:40:47.969Z,96260.59
2023-01-18T00:43:55.557Z,96267.14
2023-01-18T00:47:01.851Z,96272.16
2023-01-18T00:50:06.889Z,96268.80
2023-01-18T00:53:13.085Z,96262.40
2023-01-18T00:56:22.831Z,96254.63
2023-01-18T00:59:29.243Z,96241.88
2023-01-18T01:02:35.436Z,96236.59
2023-01-18T01:05:59.400Z,96232.45
2023-01-18T01:09:05.638Z,96224.33
2023-01-18T01:12:29.423Z,96225.86
2023-01-18T01:15:53.214Z,96217.21
2023-01-18T01:19:17.095Z,96197.42
2023-01-18T01:22:40.871Z,96196.55
2023-01-18T01:26:08.084Z,96185.16
2023-01-18T01:29:14.390Z,96177.14
2023-01-18T01:32:20.655Z,96174.33
2023-01-18T01:35:25.207Z,96175.05
2023-01-18T01:38:32.077Z,96164.83
2023-01-18T01:41:38.791Z,96157.15
2023-01-18T01:44:50.263Z,96155.08
2023-01-18T01:47:58.523Z,96159.91
2023-01-18T01:51:05.010Z,96161.55
2023-01-18T01:54:16.060Z,96164.46
2023-01-18T01:57:26.055Z,96165.96
2023-01-18T02:00:32.662Z,96165.84
2023-01-18T02:03:42.674Z,96168.88
2023-01-18T02:06:49.031Z,96168.66
2023-01-18T02:09:53.932Z,96156.95
2023-01-18T02:13:01.808Z,96138.06
2023-01-18T02:16:15.052Z,96096.77
2023-01-18T02:20:04.815Z,96057.52
2023-01-18T02:23:38.614Z,96031.88
2023-01-18T02:27:00.895Z,96058.41
2023-01-18T02:30:18.243Z,96074.63
2023-01-18T02:33:34.303Z,96077.72
2023-01-18T02:36:43.351Z,96081.59
2023-01-18T02:39:59.869Z,96089.31
2023-01-18T02:43:27.596Z,96113.04
2023-01-18T02:46:34.984Z,96119.39
2023-01-18T02:49:41.339Z,96117.46
2023-01-18T02:52:47.438Z,96122.66
2023-01-18T02:56:00.032Z,96125.36
2023-01-18T02:59:13.263Z,96121.16
2023-01-18T03:02:21.998Z,96112.17
2023-01-18T03:05:31.108Z,96111.96
2023-01-18T03:08:42.506Z,96114.50
2023-01-18T03:11:58.956Z,96126.48
2023-01-18T03:15:13.145Z,96131.27
2023-01-18T03:18:24.841Z,96108.77
2023-01-18T03:21:53.436Z,96095.23
2023-01-18T03:24:59.948Z,96105.07
2023-01-18T03:28:28.013Z,96118.86
2023-01-18T03:31:58.004Z,96133.42
2023-01-18T03:35:08.987Z,96143.89
2023-01-18T03:38:15.939Z,96136.80
2023-01-18T03:41:24.325Z,96127.42
2023-01-18T03:44:36.485Z,96119.48
2023-01-18T03:47:42.955Z,96106.48
2023-01-18T03:50:53.863Z,96093.61
2023-01-18T03:54:07.513Z,96090.98
2023-01-18T03:57:21.732Z,96083.52
2023-01-18T04:00:28.271Z,96074.67
2023-01-18T04:03:35.231Z,96057.47
2023-01-18T04:06:41.528Z,96054.87
2023-01-18T04:09:46.050Z,96053.63
2023-01-18T04:12:52.284Z,96045.95
2023-01-18T04:15:58.574Z,96033.65
2023-01-18T04:19:03.145Z,96034.35
2023-01-18T04:22:09.902Z,96037.49
2023-01-18T04:25:16.362Z,96048.02
2023-01-18T04:28:25.476Z,96053.59
2023-01-18T04:31:31.764Z,96057.20
2023-01-18T04:34:38.083Z,96067.33
2023-01-18T04:37:42.660Z,96086.44
2023-01-18T04:40:48.974Z,96084.00
2023-01-18T04:43:53.575Z,96080.80
2023-01-18T04:46:59.816Z,96076.59
2023-01-18T04:50:07.754Z,96070.55
2023-01-18T04:53:13.975Z,96067.73
2023-01-18T04:56:20.543Z,96061.13
2023-01-18T04:59:28.544Z,96054.56
2023-01-18T05:02:34.790Z,96059.48
2023-01-18T05:05:41.282Z,96068.28
2023-01-18T05:08:47.610Z,96071.62
2023-01-18T05:11:52.487Z,96074.92
2023-01-18T05:14:58.795Z,96080.31
2023-01-18T05:18:03.296Z,96082.99
2023-01-18T05:21:09.691Z,96085.14
2023-01-18T05:24:14.202Z,96085.43
2023-01-18T05:27:20.458Z,96082.38
2023-01-18T05:30:26.724Z,96084.40
2023-01-18T05:33:31.274Z,96063.69
2023-01-18T05:36:37.472Z,96044.61
2023-01-18T05:39:43.645Z,96053.09
2023-01-18T05:42:50.195Z,96072.55
2023-01-18T05:45:56.651Z,96080.15
2023-01-18T05:49:02.946Z,96069.15
2023-01-18T05:52:08.362Z,96049.81
2023-01-18T05:55:15.930Z,96053.27
2023-01-18T05:58:22.220Z,96071.55
2023-01-18T06:01:29.193Z,96079.48
2023-01-18T06:04:36.650Z,96074.25
2023-01-18T06:07:43.064Z,96077.83
2023-01-18T06:10:53.056Z,96090.30
2023-01-18T06:13:59.254Z,96088.42
2023-01-18T06:17:05.495Z,96085.83
2023-01-18T06:20:12.654Z,96092.35
2023-01-18T06:23:19.011Z,96091.02
2023-01-18T06:26:25.250Z,96086.46
2023-01-18T06:29:31.530Z,96084.81
2023-01-18T06:32:36.072Z,96096.67
2023-01-18T06:35:43.355Z,96095.67
2023-01-18T06:38:49.664Z,96096.04
2023-01-18T06:41:54.103Z,96091.89
2023-01-18T06:45:00.615Z,96088.13
2023-01-18T06:48:07.759Z,96082.23
2023-01-18T06:51:14.171Z,96107.42
2023-01-18T06:54:18.703Z,96117.72
2023-01-18T06:57:25.119Z,96128.34
2023-01-18T07:00:30.072Z,96128.91
2023-01-18T07:03:36.693Z,96122.06
2023-01-18T07:06:43.099Z,96114.00
2023-01-18T07:09:49.464Z,96106.86
2023-01-18T07:12:54.040Z,96113.21
2023-01-18T07:16:02.110Z,96117.05
2023-01-18T07:19:08.777Z,96113.63
2023-01-18T07:22:15.476Z,96100.27
2023-01-18T07:25:22.690Z,96103.70
2023-01-18T07:28:28.956Z,96125.55
2023-01-18T07:31:35.261Z,96144.08
2023-01-18T07:34:40.302Z,96151.10
2023-01-18T07:37:53.321Z,96154.81
2023-01-18T07:41:04.853Z,96164.31
2023-01-18T07:44:11.966Z,96165.00
2023-01-18T07:47:18.254Z,96163.16
2023-01-18T07:50:23.142Z,96159.91
2023-01-18T07:53:33.388Z,96150.58
2023-01-18T07:56:40.370Z,96149.58
2023-01-18T07:59:46.603Z,96149.42
2023-01-18T08:02:56.367Z,96141.55
2023-01-18T08:06:05.146Z,96133.08
2023-01-18T08:09:11.514Z,96125.20
2023-01-18T08:12:18.621Z,96120.70
2023-01-18T08:15:24.793Z,96125.76
2023-01-18T08:18:31.066Z,96133.83
2023-01-18T08:21:35.690Z,96136.10
2023-01-18T08:24:41.922Z,96133.95
2023-01-18T08:27:48.292Z,96136.23
2023-01-18T08:30:52.948Z,96128.43
2023-01-18T08:33:59.185Z,96126.30
2023-01-18T08:37:05.590Z,96127.23
2023-01-18T08:40:11.333Z,96135.11
2023-01-18T08:43:17.603Z,96151.63
2023-01-18T08:46:22.321Z,96161.75
2023-01-18T08:49:28.819Z,96163.41
2023-01-18T08:52:35.703Z,96163.10
2023-01-18T08:55:42.016Z,96163.35
2023-01-18T08:58:47.481Z,96164.73
2023-01-18T09:01:54.174Z,96172.52
2023-01-18T09:05:00.457Z,96181.63
2023-01-18T09:08:07.042Z,96192.08
2023-01-18T09:11:13.954Z,96197.41
2023-01-18T09:14:22.175Z,96198.33
2023-01-18T09:17:28.410Z,96205.40
2023-01-18T09:20:36.157Z,96202.71
2023-01-18T09:23:43.699Z,96195.96
2023-01-18T09:26:53.803Z,96200.41
2023-01-18T09:30:00.268Z,96195.40
2023-01-18T09:33:06.709Z,96186.59
2023-01-18T09:36:12.810Z,96177.75
2023-01-18T09:39:19.093Z,96162.88
2023-01-18T09:42:25.188Z,96154.62
2023-01-18T09:45:35.578Z,96171.80
2023-01-18T09:48:45.217Z,96182.82
2023-01-18T09:52:03.692Z,96198.27
2023-01-18T09:55:22.191Z,96218.89
2023-01-18T09:58:42.861Z,96230.88
2023-01-18T10:01:50.307Z,96235.81
2023-01-18T10:05:00.518Z,96227.57
2023-01-18T10:08:14.902Z,96224.63
2023-01-18T10:11:27.377Z,96230.08
2023-01-18T10:14:48.017Z,96238.13
2023-01-18T10:18:00.811Z,96248.17
2023-01-18T10:21:09.141Z,96266.05
2023-01-18T10:24:28.892Z,96272.02
2023-01-18T10:28:09.363Z,96272.34
2023-01-18T10:31:31.397Z,96277.77
2023-01-18T10:34:42.365Z,96281.51
2023-01-18T10:37:49.113Z,96277.14
2023-01-18T10:40:59.060Z,96281.98
2023-01-18T10:44:05.771Z,96292.88
2023-01-18T10:47:13.082Z,96298.52
2023-01-18T10:50:22.646Z,96304.47
2023-01-18T10:53:34.065Z,96303.58
2023-01-18T10:56:40.411Z,96308.56
2023-01-18T10:59:45.017Z,96310.58
2023-01-18T11:02:52.684Z,96314.70
2023-01-18T11:06:06.482Z,96317.90
2023-01-18T11:09:43.875Z,96323.09
2023-01-18T11:12:53.140Z,96326.80
2023-01-18T11:16:20.899Z,96328.74
2023-01-18T11:19:27.176Z,96334.75
2023-01-18T11:22:34.825Z,96341.97
2023-01-18T11:25:46.942Z,96350.76
2023-01-18T11:29:01.256Z,96357.52
2023-01-18T11:32:15.917Z,96366.65
2023-01-18T11:35:34.417Z,96368.33
2023-01-18T11:38:41.526Z,96370.98
2023-01-18T11:41:48.856Z,96369.35
2023-01-18T11:45:03.225Z,96372.58
2023-01-18T11:48:22.884Z,96377.11
2023-01-18T11:51:39.012Z,96381.91
2023-01-18T11:54:47.018Z,96376.80
2023-01-18T11:57:54.594Z,96381.95
2023-01-18T12:01:27.133Z,96388.95
2023-01-18T12:04:49.725Z,96388.65
2023-01-18T12:08:10.864Z,96400.13
2023-01-18T12:11:36.996Z,96407.82
2023-01-18T12:14:59.631Z,96415.37
2023-01-18T12:18:22.310Z,96425.73
2023-01-18T12:21:38.707Z,96435.61
2023-01-18T12:24:59.523Z,96446.10
2023-01-18T12:28:17.429Z,96461.21
2023-01-18T12:31:35.773Z,96475.06
2023-01-18T12:34:53.819Z,96483.14
2023-01-18T12:38:11.009Z,96490.88
2023-01-18T12:41:29.309Z,96496.30
2023-01-18T12:44:55.304Z,96489.70
2023-01-18T12:48:06.613Z,96498.23
2023-01-18T12:51:16.927Z,96504.16
2023-01-18T12:54:30.040Z,96509.52
2023-01-18T12:57:37.012Z,96510.89
2023-01-18T13:00:49.926Z,96522.24
2023-01-18T13:04:03.435Z,96527.45
2023-01-18T13:07:15.551Z,96536.85
2023-01-18T13:10:24.917Z,96539.98
2023-01-18T13:13:32.292Z,96551.05
2023-01-18T13:16:46.920Z,96562.64
2023-01-18T13:19:58.790Z,96580.15
2023-01-18T13:23:14.967Z,96594.45
2023-01-18T13:26:26.129Z,96601.89
2023-01-18T13:29:32.844Z,96614.44
2023-01-18T13:32:42.491Z,96635.84
2023-01-18T13:35:56.678Z,96649.84
2023-01-18T13:39:09.079Z,96658.35
2023-01-18T13:42:39.410Z,96666.33
2023-01-18T13:49:38.676Z,96675.46
2023-01-18T13:52:45.141Z,96679.44
2023-01-18T13:56:10.483Z,96691.30
2023-01-18T13:59:26.531Z,96707.94
2023-01-18T14:02:34.272Z,96714.20
2023-01-18T14:05:47.185Z,96720.02
2023-01-18T14:08:56.191Z,96724.55
2023-01-18T14:12:02.684Z,96726.09
2023-01-18T14:15:26.753Z,96732.91
2023-01-18T14:18:33.628Z,96738.89
2023-01-18T14:21:50.934Z,96741.80
2023-01-18T14:25:17.276Z,96747.74
2023-01-18T14:28:27.578Z,96756.89
2023-01-18T14:31:38.658Z,96771.10
2023-01-18T14:34:45.143Z,96782.02
2023-01-18T14:37:52.088Z,96787.95
2023-01-18T14:41:00.687Z,96796.02
2023-01-18T14:44:14.632Z,96804.30
2023-01-18T14:47:24.223Z,96823.06
2023-01-18T14:50:37.729Z,96832.73
2023-01-18T14:53:48.688Z,96842.23
2023-01-18T14:57:03.605Z,96849.19
2023-01-18T15:00:20.492Z,96859.27
2023-01-18T15:03:28.875Z,96857.23
2023-01-18T15:06:39.961Z,96861.77
2023-01-18T15:09:47.476Z,96871.33
2023-01-18T15:12:56.877Z,96876.72
2023-01-18T15:16:04.163Z,96886.29
2023-01-18T15:19:17.067Z,96897.09
2023-01-18T15:22:27.677Z,96905.06
2023-01-18T15:25:35.878Z,96905.04
2023-01-18T15:28:42.163Z,96913.20
2023-01-18T15:31:54.885Z,96923.16
2023-01-18T15:35:03.028Z,96933.09
2023-01-18T15:38:10.830Z,96937.38
2023-01-18T15:41:18.255Z,96945.18
2023-01-18T15:44:35.230Z,96947.34
2023-01-18T15:47:48.646Z,96944.70
2023-01-18T15:50:58.130Z,96947.82
2023-01-18T15:54:04.444Z,96948.17
2023-01-18T15:57:19.204Z,96939.39
2023-01-18T16:00:45.951Z,96937.77
2023-01-18T16:04:00.833Z,96941.63
2023-01-18T16:07:27.321Z,96946.19
2023-01-18T16:10:33.663Z,96945.87
2023-01-18T16:13:43.037Z,96949.15
2023-01-18T16:16:49.957Z,96963.27
2023-01-18T16:19:58.712Z,96969.89
2023-01-18T16:23:09.968Z,96979.98
2023-01-18T16:26:19.322Z,96995.36
2023-01-18T16:29:25.666Z,97005.09
2023-01-18T16:32:32.194Z,97008.85
2023-01-18T16:35:40.013Z,97017.45
2023-01-18T16:38:46.559Z,97018.33
2023-01-18T16:41:55.628Z,97019.43
2023-01-18T16:45:02.204Z,97019.98
2023-01-18T16:48:15.568Z,97016.39
2023-01-18T16:51:21.921Z,97021.48
2023-01-18T16:54:26.447Z,97024.94
2023-01-18T16:57:33.027Z,97030.66
2023-01-18T17:00:53.119Z,97034.08
2023-01-18T17:03:59.531Z,97043.77
2023-01-18T17:07:06.794Z,97055.42
2023-01-18T17:10:22.279Z,97061.36
2023-01-18T17:13:28.516Z,97068.66
2023-01-18T17:16:34.953Z,97073.92
2023-01-18T17:19:43.902Z,97078.27
2023-01-18T17:22:50.753Z,97088.73
2023-01-18T17:25:58.569Z,97097.10
2023-01-18T17:29:05.994Z,97101.17
2023-01-18T17:32:13.498Z,97105.72
2023-01-18T17:35:22.937Z,97106.64
2023-01-18T17:41:37.205Z,97122.30
2023-01-18T17:44:43.499Z,97137.30
2023-01-18T17:47:47.996Z,97146.30
2023-01-18T17:50:54.175Z,97155.29
2023-01-18T17:54:00.819Z,97155.46
2023-01-18T17:57:09.020Z,97154.15
2023-01-18T18:00:17.366Z,97155.40
2023-01-18T18:03:23.702Z,97165.70
2023-01-18T18:06:31.623Z,97165.85
2023-01-18T18:09:43.635Z,97169.54
2023-01-18T18:12:49.904Z,97173.04
2023-01-18T18:15:56.174Z,97185.85
2023-01-18T18:19:00.692Z,97193.47
2023-01-18T18:22:07.333Z,97201.79
2023-01-18T18:25:13.935Z,97213.67
2023-01-18T18:28:20.464Z,97220.64
2023-01-18T18:31:26.710Z,97231.13
2023-01-18T18:34:31.551Z,97236.05
2023-01-18T18:37:37.760Z,97243.71
2023-01-18T18:40:44.050Z,97258.86
2023-01-18T18:43:48.682Z,97270.55
2023-01-18T18:46:55.503Z,97274.05
2023-01-18T18:50:01.889Z,97269.55
2023-01-18T18:53:06.962Z,97268.06
2023-01-18T18:56:13.354Z,97265.45
2023-01-18T18:59:19.598Z,97268.27
2023-01-18T19:02:25.765Z,97271.92
2023-01-18T19:05:33.321Z,97277.56
2023-01-18T19:08:39.726Z,97285.84
2023-01-18T19:11:54.278Z,97287.81
2023-01-18T19:15:01.305Z,97298.42
2023-01-18T19:18:05.823Z,97301.29
2023-01-18T19:21:12.067Z,97309.71
2023-01-18T19:24:18.286Z,97326.71
2023-01-18T19:27:25.351Z,97332.06
2023-01-18T19:30:33.373Z,97330.61
2023-01-18T19:33:39.713Z,97334.27
2023-01-18T19:36:44.305Z,97342.16
2023-01-18T19:39:50.578Z,97356.27
2023-01-18T19:42:55.945Z,97359.06
2023-01-18T19:46:05.781Z,97365.55
2023-01-18T19:49:12.054Z,97378.67
2023-01-18T19:52:18.319Z,97375.23
2023-01-18T19:55:22.841Z,97375.77
2023-01-18T19:58:31.064Z,97372.85
2023-01-18T20:01:37.726Z,97384.48
2023-01-18T20:04:44.535Z,97389.00
2023-01-18T20:07:51.292Z,97399.74
2023-01-18T20:11:04.298Z,97403.13
2023-01-18T20:14:10.884Z,97399.94
2023-01-18T20:17:17.600Z,97400.09
2023-01-18T20:20:31.731Z,97393.80
2023-01-18T20:23:39.444Z,97389.15
2023-01-18T20:26:47.462Z,97388.92
2023-01-18T20:29:54.027Z,97387.59
2023-01-18T20:33:00.606Z,97396.11
2023-01-18T20:36:08.334Z,97405.29
2023-01-18T20:39:16.335Z,97415.45
2023-01-18T20:42:22.686Z,97419.52
2023-01-18T20:45:27.479Z,97418.71
2023-01-18T20:48:35.108Z,97420.95
2023-01-18T20:51:41.721Z,97424.96
2023-01-18T20:54:48.103Z,97427.85
2023-01-18T20:57:54.532Z,97437.92
2023-01-18T21:01:05.096Z,97443.91
2023-01-18T21:04:11.539Z,97447.75
2023-01-18T21:07:17.731Z,97451.86
2023-01-18T21:10:38.661Z,97459.30
2023-01-18T21:13:45.175Z,97466.14
2023-01-18T21:16:49.725Z,97469.45
2023-01-18T21:19:55.979Z,97471.65
2023-01-18T21:23:02.930Z,97471.33
2023-01-18T21:26:11.587Z,97468.56
2023-01-18T21:29:18.066Z,97467.80
2023-01-18T21:32:24.319Z,97467.48
2023-01-18T21:35:30.570Z,97469.00
2023-01-18T21:38:37.754Z,97477.53
2023-01-18T21:42:01.421Z,97482.65
2023-01-18T21:45:27.966Z,97490.75
2023-01-18T21:48:34.579Z,97497.17
2023-01-18T21:51:58.519Z,97503.85
2023-01-18T21:55:04.937Z,97503.09
2023-01-18T21:58:28.562Z,97503.93
2023-01-18T22:01:39.132Z,97515.61
2023-01-18T22:05:01.715Z,97529.94
2023-01-18T22:08:09.543Z,97541.16
2023-01-18T22:11:15.909Z,97547.84
2023-01-18T22:14:20.465Z,97552.52
2023-01-18T22:17:27.187Z,97560.98
2023-01-18T22:20:33.458Z,97568.91
2023-01-18T22:23:38.029Z,97565.02
2023-01-18T22:26:44.749Z,97562.89
2023-01-18T22:29:51.250Z,97562.45
2023-01-18T22:32:57.502Z,97565.50
2023-01-18T22:36:04.650Z,97565.85
2023-01-18T22:39:12.044Z,97570.45
2023-01-18T22:42:19.020Z,97578.61
2023-01-18T22:45:25.321Z,97581.63
2023-01-18T22:48:29.809Z,97580.23
2023-01-18T22:51:36.600Z,97586.48
2023-01-18T22:54:43.055Z,97582.54
2023-01-18T22:57:49.329Z,97583.60
2023-01-18T23:00:53.868Z,97584.50
2023-01-18T23:04:02.291Z,97589.97
2023-01-18T23:07:08.632Z,97590.11
2023-01-18T23:10:13.357Z,97594.02
2023-01-18T23:13:19.638Z,97603.06
2023-01-18T23:16:40.540Z,97608.83
2023-01-18T23:19:46.760Z,97609.76
2023-01-18T23:22:53.018Z,97604.40
2023-01-18T23:25:57.937Z,97602.66
2023-01-18T23:29:04.308Z,97593.59
2023-01-18T23:32:09.246Z,97592.06
2023-01-18T23:35:15.450Z,97584.87
2023-01-18T23:38:21.738Z,97583.56
2023-01-18T23:41:43.776Z,97583.38
2023-01-18T23:45:07.300Z,97578.54
2023-01-18T23:48:33.099Z,97576.82
2023-01-18T23:51:56.848Z,97570.63
2023-01-18T23:55:03.137Z,97569.41
2023-01-18T23:58:07.645Z,97577.52
